sensor_id;sensor_type;location;lat;lon;timestamp;pressure;altitude;pressure_sealevel;temperature
20092;BMP180;10205;49.678;6.560;2023-07-29T00:00:22;99238.00;;;24.70
20092;BMP180;10205;49.678;6.560;2023-07-29T00:02:50;99234.00;;;24.70
20092;BMP180;10205;49.678;6.560;2023-07-29T00:05:17;99230.00;;;24.70
20092;BMP180;10205;49.678;6.560;2023-07-29T00:07:44;99219.00;;;24.70
20092;BMP180;10205;49.678;6.560;2023-07-29T00:10:11;99223.00;;;24.60
20092;BMP180;10205;49.678;6.560;2023-07-29T00:12:40;99220.00;;;24.60
20092;BMP180;10205;49.678;6.560;2023-07-29T00:15:09;99207.00;;;24.60
20092;BMP180;10205;49.678;6.560;2023-07-29T00:17:36;99208.00;;;24.60
20092;BMP180;10205;49.678;6.560;2023-07-29T00:20:05;99218.00;;;24.50
20092;BMP180;10205;49.678;6.560;2023-07-29T00:22:34;99212.00;;;24.50
20092;BMP180;10205;49.678;6.560;2023-07-29T00:25:01;99215.00;;;24.50
20092;BMP180;10205;49.678;6.560;2023-07-29T00:27:28;99213.00;;;24.50
20092;BMP180;10205;49.678;6.560;2023-07-29T00:29:57;99218.00;;;24.50
20092;BMP180;10205;49.678;6.560;2023-07-29T00:32:25;99214.00;;;24.40
20092;BMP180;10205;49.678;6.560;2023-07-29T00:34:52;99214.00;;;24.40
20092;BMP180;10205;49.678;6.560;2023-07-29T00:37:19;99201.00;;;24.40
20092;BMP180;10205;49.678;6.560;2023-07-29T00:39:46;99212.00;;;24.40
20092;BMP180;10205;49.678;6.560;2023-07-29T00:42:14;99211.00;;;24.40
20092;BMP180;10205;49.678;6.560;2023-07-29T00:44:41;99209.00;;;24.40
20092;BMP180;10205;49.678;6.560;2023-07-29T00:47:11;99213.00;;;24.40
20092;BMP180;10205;49.678;6.560;2023-07-29T00:49:40;99217.00;;;24.40
20092;BMP180;10205;49.678;6.560;2023-07-29T00:52:07;99212.00;;;24.40
20092;BMP180;10205;49.678;6.560;2023-07-29T00:54:37;99203.00;;;24.40
20092;BMP180;10205;49.678;6.560;2023-07-29T00:57:05;99217.00;;;24.40
20092;BMP180;10205;49.678;6.560;2023-07-29T00:59:34;99200.00;;;24.30
20092;BMP180;10205;49.678;6.560;2023-07-29T01:02:02;99211.00;;;24.30
20092;BMP180;10205;49.678;6.560;2023-07-29T01:04:31;99206.00;;;24.30
20092;BMP180;10205;49.678;6.560;2023-07-29T01:07:14;99188.00;;;24.30
20092;BMP180;10205;49.678;6.560;2023-07-29T01:09:52;99188.00;;;24.30
20092;BMP180;10205;49.678;6.560;2023-07-29T01:12:32;99174.00;;;24.30
20092;BMP180;10205;49.678;6.560;2023-07-29T01:15:11;99173.00;;;24.30
20092;BMP180;10205;49.678;6.560;2023-07-29T01:17:46;99181.00;;;24.30
20092;BMP180;10205;49.678;6.560;2023-07-29T01:20:17;99183.00;;;24.30
20092;BMP180;10205;49.678;6.560;2023-07-29T01:22:47;99182.00;;;24.20
20092;BMP180;10205;49.678;6.560;2023-07-29T01:25:16;99163.00;;;24.20
20092;BMP180;10205;49.678;6.560;2023-07-29T01:27:48;99168.00;;;24.20
20092;BMP180;10205;49.678;6.560;2023-07-29T01:30:18;99171.00;;;24.20
20092;BMP180;10205;49.678;6.560;2023-07-29T01:32:53;99162.00;;;24.20
20092;BMP180;10205;49.678;6.560;2023-07-29T01:35:28;99177.00;;;24.20
20092;BMP180;10205;49.678;6.560;2023-07-29T01:38:01;99175.00;;;24.10
20092;BMP180;10205;49.678;6.560;2023-07-29T01:40:32;99174.00;;;24.10
20092;BMP180;10205;49.678;6.560;2023-07-29T01:43:00;99180.00;;;24.10
20092;BMP180;10205;49.678;6.560;2023-07-29T01:45:29;99178.00;;;24.10
20092;BMP180;10205;49.678;6.560;2023-07-29T01:47:57;99177.00;;;24.10
20092;BMP180;10205;49.678;6.560;2023-07-29T01:50:24;99174.00;;;24.10
20092;BMP180;10205;49.678;6.560;2023-07-29T01:52:52;99165.00;;;24.10
20092;BMP180;10205;49.678;6.560;2023-07-29T01:55:19;99163.00;;;24.10
20092;BMP180;10205;49.678;6.560;2023-07-29T01:57:49;99181.00;;;24.10
20092;BMP180;10205;49.678;6.560;2023-07-29T02:00:18;99173.00;;;24.10
20092;BMP180;10205;49.678;6.560;2023-07-29T02:02:47;99174.00;;;24.10
20092;BMP180;10205;49.678;6.560;2023-07-29T02:05:15;99158.00;;;24.10
20092;BMP180;10205;49.678;6.560;2023-07-29T02:07:44;99176.00;;;24.10
20092;BMP180;10205;49.678;6.560;2023-07-29T02:10:11;99175.00;;;24.10
20092;BMP180;10205;49.678;6.560;2023-07-29T02:12:39;99177.00;;;24.10
20092;BMP180;10205;49.678;6.560;2023-07-29T02:15:11;99176.00;;;24.10
20092;BMP180;10205;49.678;6.560;2023-07-29T02:17:42;99166.00;;;24.10
20092;BMP180;10205;49.678;6.560;2023-07-29T02:20:10;99168.00;;;24.10
20092;BMP180;10205;49.678;6.560;2023-07-29T02:22:38;99167.00;;;24.10
20092;BMP180;10205;49.678;6.560;2023-07-29T02:25:05;99157.00;;;24.00
20092;BMP180;10205;49.678;6.560;2023-07-29T02:27:33;99148.00;;;24.00
20092;BMP180;10205;49.678;6.560;2023-07-29T02:30:00;99148.00;;;24.00
20092;BMP180;10205;49.678;6.560;2023-07-29T02:32:29;99146.00;;;24.00
20092;BMP180;10205;49.678;6.560;2023-07-29T02:34:57;99140.00;;;24.00
20092;BMP180;10205;49.678;6.560;2023-07-29T02:37:24;99139.00;;;24.10
20092;BMP180;10205;49.678;6.560;2023-07-29T02:39:51;99141.00;;;24.00
20092;BMP180;10205;49.678;6.560;2023-07-29T02:42:18;99128.00;;;24.10
20092;BMP180;10205;49.678;6.560;2023-07-29T02:44:45;99132.00;;;24.00
20092;BMP180;10205;49.678;6.560;2023-07-29T02:47:13;99142.00;;;24.00
20092;BMP180;10205;49.678;6.560;2023-07-29T02:49:41;99127.00;;;24.00
20092;BMP180;10205;49.678;6.560;2023-07-29T02:52:09;99125.00;;;24.00
20092;BMP180;10205;49.678;6.560;2023-07-29T02:54:36;99133.00;;;24.10
20092;BMP180;10205;49.678;6.560;2023-07-29T02:57:04;99131.00;;;24.00
20092;BMP180;10205;49.678;6.560;2023-07-29T02:59:31;99132.00;;;24.10
20092;BMP180;10205;49.678;6.560;2023-07-29T03:01:58;99127.00;;;24.10
20092;BMP180;10205;49.678;6.560;2023-07-29T03:04:25;99128.00;;;24.10
20092;BMP180;10205;49.678;6.560;2023-07-29T03:06:54;99137.00;;;24.00
20092;BMP180;10205;49.678;6.560;2023-07-29T03:09:21;99134.00;;;24.00
20092;BMP180;10205;49.678;6.560;2023-07-29T03:11:49;99133.00;;;24.00
20092;BMP180;10205;49.678;6.560;2023-07-29T03:14:16;99129.00;;;24.00
20092;BMP180;10205;49.678;6.560;2023-07-29T03:16:44;99132.00;;;24.00
20092;BMP180;10205;49.678;6.560;2023-07-29T03:19:12;99127.00;;;24.00
20092;BMP180;10205;49.678;6.560;2023-07-29T03:21:39;99121.00;;;24.00
20092;BMP180;10205;49.678;6.560;2023-07-29T03:24:08;99115.00;;;24.00
20092;BMP180;10205;49.678;6.560;2023-07-29T03:26:35;99115.00;;;24.00
20092;BMP180;10205;49.678;6.560;2023-07-29T03:29:02;99141.00;;;24.00
20092;BMP180;10205;49.678;6.560;2023-07-29T03:31:30;99121.00;;;24.00
20092;BMP180;10205;49.678;6.560;2023-07-29T03:33:57;99121.00;;;24.00
20092;BMP180;10205;49.678;6.560;2023-07-29T03:36:24;99126.00;;;24.00
20092;BMP180;10205;49.678;6.560;2023-07-29T03:38:51;99128.00;;;24.00
20092;BMP180;10205;49.678;6.560;2023-07-29T03:41:20;99134.00;;;24.00
20092;BMP180;10205;49.678;6.560;2023-07-29T03:43:47;99184.00;;;24.00
20092;BMP180;10205;49.678;6.560;2023-07-29T03:53:36;99133.00;;;23.80
20092;BMP180;10205;49.678;6.560;2023-07-29T03:56:04;99127.00;;;23.80
20092;BMP180;10205;49.678;6.560;2023-07-29T03:58:32;99138.00;;;23.80
20092;BMP180;10205;49.678;6.560;2023-07-29T04:01:00;99144.00;;;23.80
20092;BMP180;10205;49.678;6.560;2023-07-29T04:03:27;99142.00;;;23.80
20092;BMP180;10205;49.678;6.560;2023-07-29T04:05:54;99137.00;;;23.90
20092;BMP180;10205;49.678;6.560;2023-07-29T04:08:22;99153.00;;;23.90
20092;BMP180;10205;49.678;6.560;2023-07-29T04:10:49;99158.00;;;23.90
20092;BMP180;10205;49.678;6.560;2023-07-29T04:13:16;99166.00;;;23.80
20092;BMP180;10205;49.678;6.560;2023-07-29T04:15:45;99191.00;;;23.90
20092;BMP180;10205;49.678;6.560;2023-07-29T04:18:12;99185.00;;;23.80
20092;BMP180;10205;49.678;6.560;2023-07-29T04:20:40;99179.00;;;23.80
20092;BMP180;10205;49.678;6.560;2023-07-29T04:23:07;99184.00;;;23.80
20092;BMP180;10205;49.678;6.560;2023-07-29T04:25:34;99179.00;;;23.70
20092;BMP180;10205;49.678;6.560;2023-07-29T04:28:02;99162.00;;;23.70
20092;BMP180;10205;49.678;6.560;2023-07-29T04:30:30;99153.00;;;23.70
20092;BMP180;10205;49.678;6.560;2023-07-29T04:32:59;99167.00;;;23.70
20092;BMP180;10205;49.678;6.560;2023-07-29T04:35:26;99173.00;;;23.70
20092;BMP180;10205;49.678;6.560;2023-07-29T04:37:53;99172.00;;;23.70
20092;BMP180;10205;49.678;6.560;2023-07-29T04:40:22;99184.00;;;23.70
20092;BMP180;10205;49.678;6.560;2023-07-29T04:42:50;99170.00;;;23.70
20092;BMP180;10205;49.678;6.560;2023-07-29T04:45:18;99139.00;;;23.70
20092;BMP180;10205;49.678;6.560;2023-07-29T04:47:45;99147.00;;;23.70
20092;BMP180;10205;49.678;6.560;2023-07-29T04:50:14;99141.00;;;23.70
20092;BMP180;10205;49.678;6.560;2023-07-29T04:52:41;99138.00;;;23.70
20092;BMP180;10205;49.678;6.560;2023-07-29T04:55:08;99143.00;;;23.60
20092;BMP180;10205;49.678;6.560;2023-07-29T04:57:35;99138.00;;;23.60
20092;BMP180;10205;49.678;6.560;2023-07-29T05:00:03;99153.00;;;23.60
20092;BMP180;10205;49.678;6.560;2023-07-29T05:02:31;99156.00;;;23.60
20092;BMP180;10205;49.678;6.560;2023-07-29T05:04:58;99148.00;;;23.50
20092;BMP180;10205;49.678;6.560;2023-07-29T05:07:26;99147.00;;;23.50
20092;BMP180;10205;49.678;6.560;2023-07-29T05:09:54;99155.00;;;23.50
20092;BMP180;10205;49.678;6.560;2023-07-29T05:12:21;99167.00;;;23.50
20092;BMP180;10205;49.678;6.560;2023-07-29T05:14:49;99179.00;;;23.50
20092;BMP180;10205;49.678;6.560;2023-07-29T05:17:16;99192.00;;;23.50
20092;BMP180;10205;49.678;6.560;2023-07-29T05:19:43;99190.00;;;23.50
20092;BMP180;10205;49.678;6.560;2023-07-29T05:22:10;99183.00;;;23.50
20092;BMP180;10205;49.678;6.560;2023-07-29T05:24:39;99196.00;;;23.50
20092;BMP180;10205;49.678;6.560;2023-07-29T05:27:06;99199.00;;;23.40
20092;BMP180;10205;49.678;6.560;2023-07-29T05:29:34;99203.00;;;23.40
20092;BMP180;10205;49.678;6.560;2023-07-29T05:32:01;99197.00;;;23.40
20092;BMP180;10205;49.678;6.560;2023-07-29T05:34:29;99196.00;;;23.40
20092;BMP180;10205;49.678;6.560;2023-07-29T05:36:56;99201.00;;;23.40
20092;BMP180;10205;49.678;6.560;2023-07-29T05:39:23;99197.00;;;23.40
20092;BMP180;10205;49.678;6.560;2023-07-29T05:41:52;99203.00;;;23.30
20092;BMP180;10205;49.678;6.560;2023-07-29T05:44:20;99206.00;;;23.30
20092;BMP180;10205;49.678;6.560;2023-07-29T05:46:47;99192.00;;;23.30
20092;BMP180;10205;49.678;6.560;2023-07-29T05:49:14;99214.00;;;23.30
20092;BMP180;10205;49.678;6.560;2023-07-29T05:51:41;99223.00;;;23.30
20092;BMP180;10205;49.678;6.560;2023-07-29T05:54:09;99220.00;;;23.30
20092;BMP180;10205;49.678;6.560;2023-07-29T05:56:36;99225.00;;;23.30
20092;BMP180;10205;49.678;6.560;2023-07-29T05:59:05;99226.00;;;23.30
20092;BMP180;10205;49.678;6.560;2023-07-29T06:01:32;99234.00;;;23.30
20092;BMP180;10205;49.678;6.560;2023-07-29T06:03:59;99222.00;;;23.30
20092;BMP180;10205;49.678;6.560;2023-07-29T06:06:26;99215.00;;;23.30
20092;BMP180;10205;49.678;6.560;2023-07-29T06:08:54;99211.00;;;23.20
20092;BMP180;10205;49.678;6.560;2023-07-29T06:11:21;99209.00;;;23.20
20092;BMP180;10205;49.678;6.560;2023-07-29T06:13:48;99213.00;;;23.30
20092;BMP180;10205;49.678;6.560;2023-07-29T06:16:17;99214.00;;;23.20
20092;BMP180;10205;49.678;6.560;2023-07-29T06:18:44;99216.00;;;23.20
20092;BMP180;10205;49.678;6.560;2023-07-29T06:21:12;99224.00;;;23.20
20092;BMP180;10205;49.678;6.560;2023-07-29T06:23:42;99214.00;;;23.20
20092;BMP180;10205;49.678;6.560;2023-07-29T06:26:10;99221.00;;;23.20
20092;BMP180;10205;49.678;6.560;2023-07-29T06:28:37;99227.00;;;23.20
20092;BMP180;10205;49.678;6.560;2023-07-29T06:31:04;99224.00;;;23.20
20092;BMP180;10205;49.678;6.560;2023-07-29T06:33:33;99226.00;;;23.20
20092;BMP180;10205;49.678;6.560;2023-07-29T06:36:00;99227.00;;;23.20
20092;BMP180;10205;49.678;6.560;2023-07-29T06:38:27;99236.00;;;23.20
20092;BMP180;10205;49.678;6.560;2023-07-29T06:40:55;99224.00;;;23.20
20092;BMP180;10205;49.678;6.560;2023-07-29T06:43:22;99228.00;;;23.20
20092;BMP180;10205;49.678;6.560;2023-07-29T06:45:49;99231.00;;;23.20
20092;BMP180;10205;49.678;6.560;2023-07-29T06:48:17;99229.00;;;23.20
20092;BMP180;10205;49.678;6.560;2023-07-29T06:50:47;99236.00;;;23.20
20092;BMP180;10205;49.678;6.560;2023-07-29T06:53:15;99233.00;;;23.10
20092;BMP180;10205;49.678;6.560;2023-07-29T06:55:42;99237.00;;;23.10
20092;BMP180;10205;49.678;6.560;2023-07-29T06:58:10;99234.00;;;23.10
20092;BMP180;10205;49.678;6.560;2023-07-29T07:00:37;99234.00;;;23.10
20092;BMP180;10205;49.678;6.560;2023-07-29T07:03:05;99230.00;;;23.20
20092;BMP180;10205;49.678;6.560;2023-07-29T07:05:32;99247.00;;;23.20
20092;BMP180;10205;49.678;6.560;2023-07-29T07:08:00;99235.00;;;23.20
20092;BMP180;10205;49.678;6.560;2023-07-29T07:10:28;99247.00;;;23.20
20092;BMP180;10205;49.678;6.560;2023-07-29T07:12:55;99249.00;;;23.20
20092;BMP180;10205;49.678;6.560;2023-07-29T07:15:22;99252.00;;;23.20
20092;BMP180;10205;49.678;6.560;2023-07-29T07:17:50;99247.00;;;23.20
20092;BMP180;10205;49.678;6.560;2023-07-29T07:20:18;99256.00;;;23.20
20092;BMP180;10205;49.678;6.560;2023-07-29T07:22:45;99245.00;;;23.30
20092;BMP180;10205;49.678;6.560;2023-07-29T07:25:14;99251.00;;;23.30
20092;BMP180;10205;49.678;6.560;2023-07-29T07:27:41;99258.00;;;23.30
20092;BMP180;10205;49.678;6.560;2023-07-29T07:30:09;99247.00;;;23.30
20092;BMP180;10205;49.678;6.560;2023-07-29T07:32:37;99253.00;;;23.30
20092;BMP180;10205;49.678;6.560;2023-07-29T07:35:04;99243.00;;;23.40
20092;BMP180;10205;49.678;6.560;2023-07-29T07:37:32;99239.00;;;23.40
20092;BMP180;10205;49.678;6.560;2023-07-29T07:39:59;99231.00;;;23.40
20092;BMP180;10205;49.678;6.560;2023-07-29T07:42:28;99233.00;;;23.40
20092;BMP180;10205;49.678;6.560;2023-07-29T07:44:55;99238.00;;;23.50
20092;BMP180;10205;49.678;6.560;2023-07-29T07:47:22;99227.00;;;23.50
20092;BMP180;10205;49.678;6.560;2023-07-29T07:49:49;99236.00;;;23.50
20092;BMP180;10205;49.678;6.560;2023-07-29T07:52:17;99241.00;;;23.50
20092;BMP180;10205;49.678;6.560;2023-07-29T07:54:44;99245.00;;;23.50
20092;BMP180;10205;49.678;6.560;2023-07-29T07:57:11;99241.00;;;23.60
20092;BMP180;10205;49.678;6.560;2023-07-29T07:59:40;99247.00;;;23.60
20092;BMP180;10205;49.678;6.560;2023-07-29T08:02:07;99247.00;;;23.60
20092;BMP180;10205;49.678;6.560;2023-07-29T08:04:34;99252.00;;;23.70
20092;BMP180;10205;49.678;6.560;2023-07-29T08:07:01;99256.00;;;23.70
20092;BMP180;10205;49.678;6.560;2023-07-29T08:09:29;99245.00;;;23.70
20092;BMP180;10205;49.678;6.560;2023-07-29T08:11:56;99248.00;;;23.70
20092;BMP180;10205;49.678;6.560;2023-07-29T08:14:23;99239.00;;;23.80
20092;BMP180;10205;49.678;6.560;2023-07-29T08:16:52;99244.00;;;23.80
20092;BMP180;10205;49.678;6.560;2023-07-29T08:19:19;99237.00;;;23.80
20092;BMP180;10205;49.678;6.560;2023-07-29T08:21:46;99237.00;;;23.90
20092;BMP180;10205;49.678;6.560;2023-07-29T08:24:13;99252.00;;;23.90
20092;BMP180;10205;49.678;6.560;2023-07-29T08:26:41;99249.00;;;23.90
20092;BMP180;10205;49.678;6.560;2023-07-29T08:29:08;99250.00;;;24.00
20092;BMP180;10205;49.678;6.560;2023-07-29T08:31:35;99255.00;;;24.00
20092;BMP180;10205;49.678;6.560;2023-07-29T08:34:05;99249.00;;;24.10
20092;BMP180;10205;49.678;6.560;2023-07-29T08:36:32;99261.00;;;24.10
20092;BMP180;10205;49.678;6.560;2023-07-29T08:38:59;99241.00;;;24.20
20092;BMP180;10205;49.678;6.560;2023-07-29T08:41:35;99244.00;;;24.20
20092;BMP180;10205;49.678;6.560;2023-07-29T08:44:11;99242.00;;;24.20
20092;BMP180;10205;49.678;6.560;2023-07-29T08:46:39;99239.00;;;24.30
20092;BMP180;10205;49.678;6.560;2023-07-29T08:49:08;99238.00;;;24.30
20092;BMP180;10205;49.678;6.560;2023-07-29T08:51:36;99238.00;;;24.40
20092;BMP180;10205;49.678;6.560;2023-07-29T08:54:04;99241.00;;;24.40
20092;BMP180;10205;49.678;6.560;2023-07-29T08:56:32;99234.00;;;24.50
20092;BMP180;10205;49.678;6.560;2023-07-29T08:58:59;99228.00;;;24.50
20092;BMP180;10205;49.678;6.560;2023-07-29T09:01:28;99243.00;;;24.50
20092;BMP180;10205;49.678;6.560;2023-07-29T09:03:56;99235.00;;;24.60
20092;BMP180;10205;49.678;6.560;2023-07-29T09:06:25;99241.00;;;24.60
20092;BMP180;10205;49.678;6.560;2023-07-29T09:08:54;99247.00;;;24.70
20092;BMP180;10205;49.678;6.560;2023-07-29T09:11:22;99261.00;;;24.70
20092;BMP180;10205;49.678;6.560;2023-07-29T09:13:50;99258.00;;;24.70
20092;BMP180;10205;49.678;6.560;2023-07-29T09:16:20;99269.00;;;24.80
20092;BMP180;10205;49.678;6.560;2023-07-29T09:18:48;99270.00;;;24.90
20092;BMP180;10205;49.678;6.560;2023-07-29T09:21:17;99262.00;;;25.00
20092;BMP180;10205;49.678;6.560;2023-07-29T09:23:46;99264.00;;;25.00
20092;BMP180;10205;49.678;6.560;2023-07-29T09:26:13;99271.00;;;25.10
20092;BMP180;10205;49.678;6.560;2023-07-29T09:28:41;99278.00;;;25.20
20092;BMP180;10205;49.678;6.560;2023-07-29T09:31:19;99278.00;;;25.20
20092;BMP180;10205;49.678;6.560;2023-07-29T09:33:47;99279.00;;;25.30
20092;BMP180;10205;49.678;6.560;2023-07-29T09:36:15;99275.00;;;25.30
20092;BMP180;10205;49.678;6.560;2023-07-29T09:38:45;99270.00;;;25.30
20092;BMP180;10205;49.678;6.560;2023-07-29T09:41:13;99267.00;;;25.40
20092;BMP180;10205;49.678;6.560;2023-07-29T09:43:42;99272.00;;;25.50
20092;BMP180;10205;49.678;6.560;2023-07-29T09:46:09;99275.00;;;25.50
20092;BMP180;10205;49.678;6.560;2023-07-29T09:48:38;99269.00;;;25.60
20092;BMP180;10205;49.678;6.560;2023-07-29T09:51:11;99271.00;;;25.60
20092;BMP180;10205;49.678;6.560;2023-07-29T09:53:45;99284.00;;;25.70
20092;BMP180;10205;49.678;6.560;2023-07-29T09:56:13;99278.00;;;25.70
20092;BMP180;10205;49.678;6.560;2023-07-29T09:58:43;99284.00;;;25.70
20092;BMP180;10205;49.678;6.560;2023-07-29T10:01:11;99288.00;;;25.80
20092;BMP180;10205;49.678;6.560;2023-07-29T10:03:39;99282.00;;;25.80
20092;BMP180;10205;49.678;6.560;2023-07-29T10:06:08;99278.00;;;25.90
20092;BMP180;10205;49.678;6.560;2023-07-29T10:08:35;99288.00;;;26.00
20092;BMP180;10205;49.678;6.560;2023-07-29T10:11:07;99282.00;;;26.00
20092;BMP180;10205;49.678;6.560;2023-07-29T10:13:36;99272.00;;;26.10
20092;BMP180;10205;49.678;6.560;2023-07-29T10:16:04;99270.00;;;26.20
20092;BMP180;10205;49.678;6.560;2023-07-29T10:18:33;99276.00;;;26.20
20092;BMP180;10205;49.678;6.560;2023-07-29T10:21:02;99262.00;;;26.30
20092;BMP180;10205;49.678;6.560;2023-07-29T10:23:38;99278.00;;;26.30
20092;BMP180;10205;49.678;6.560;2023-07-29T10:26:11;99274.00;;;26.40
20092;BMP180;10205;49.678;6.560;2023-07-29T10:28:46;99289.00;;;26.50
20092;BMP180;10205;49.678;6.560;2023-07-29T10:31:16;99289.00;;;26.50
20092;BMP180;10205;49.678;6.560;2023-07-29T10:33:44;99289.00;;;26.60
20092;BMP180;10205;49.678;6.560;2023-07-29T10:36:12;99294.00;;;26.60
20092;BMP180;10205;49.678;6.560;2023-07-29T10:38:41;99304.00;;;26.70
20092;BMP180;10205;49.678;6.560;2023-07-29T10:41:10;99289.00;;;26.70
20092;BMP180;10205;49.678;6.560;2023-07-29T10:43:37;99281.00;;;26.80
20092;BMP180;10205;49.678;6.560;2023-07-29T10:46:18;99287.00;;;26.80
20092;BMP180;10205;49.678;6.560;2023-07-29T10:48:54;99283.00;;;26.90
20092;BMP180;10205;49.678;6.560;2023-07-29T10:51:27;99284.00;;;26.90
20092;BMP180;10205;49.678;6.560;2023-07-29T10:53:57;99286.00;;;27.00
20092;BMP180;10205;49.678;6.560;2023-07-29T10:56:29;99279.00;;;27.00
20092;BMP180;10205;49.678;6.560;2023-07-29T10:58:59;99285.00;;;27.10
20092;BMP180;10205;49.678;6.560;2023-07-29T11:01:30;99289.00;;;27.20
20092;BMP180;10205;49.678;6.560;2023-07-29T11:04:25;99284.00;;;27.20
20092;BMP180;10205;49.678;6.560;2023-07-29T11:07:23;99280.00;;;27.20
20092;BMP180;10205;49.678;6.560;2023-07-29T11:09:56;99278.00;;;27.30
20092;BMP180;10205;49.678;6.560;2023-07-29T11:12:43;99289.00;;;27.40
20092;BMP180;10205;49.678;6.560;2023-07-29T11:15:22;99278.00;;;27.50
20092;BMP180;10205;49.678;6.560;2023-07-29T11:17:52;99273.00;;;27.50
20092;BMP180;10205;49.678;6.560;2023-07-29T11:20:23;99273.00;;;27.60
20092;BMP180;10205;49.678;6.560;2023-07-29T11:22:52;99283.00;;;27.70
20092;BMP180;10205;49.678;6.560;2023-07-29T11:25:20;99266.00;;;27.70
20092;BMP180;10205;49.678;6.560;2023-07-29T11:27:51;99265.00;;;27.80
20092;BMP180;10205;49.678;6.560;2023-07-29T11:30:19;99262.00;;;27.90
20092;BMP180;10205;49.678;6.560;2023-07-29T11:32:47;99271.00;;;27.90
20092;BMP180;10205;49.678;6.560;2023-07-29T11:35:16;99268.00;;;28.00
20092;BMP180;10205;49.678;6.560;2023-07-29T11:37:47;99269.00;;;28.10
20092;BMP180;10205;49.678;6.560;2023-07-29T11:40:16;99276.00;;;28.10
20092;BMP180;10205;49.678;6.560;2023-07-29T11:42:44;99273.00;;;28.20
20092;BMP180;10205;49.678;6.560;2023-07-29T11:45:14;99287.00;;;28.20
20092;BMP180;10205;49.678;6.560;2023-07-29T11:47:42;99283.00;;;28.30
20092;BMP180;10205;49.678;6.560;2023-07-29T11:50:13;99272.00;;;28.30
20092;BMP180;10205;49.678;6.560;2023-07-29T11:52:46;99274.00;;;28.40
20092;BMP180;10205;49.678;6.560;2023-07-29T11:55:15;99264.00;;;28.40
20092;BMP180;10205;49.678;6.560;2023-07-29T11:57:51;99266.00;;;28.50
20092;BMP180;10205;49.678;6.560;2023-07-29T12:00:21;99271.00;;;28.60
20092;BMP180;10205;49.678;6.560;2023-07-29T12:02:52;99270.00;;;28.60
20092;BMP180;10205;49.678;6.560;2023-07-29T12:05:25;99254.00;;;28.70
20092;BMP180;10205;49.678;6.560;2023-07-29T12:07:53;99239.00;;;28.80
20092;BMP180;10205;49.678;6.560;2023-07-29T12:10:21;99265.00;;;28.90
20092;BMP180;10205;49.678;6.560;2023-07-29T12:12:50;99258.00;;;29.00
20092;BMP180;10205;49.678;6.560;2023-07-29T12:15:29;99264.00;;;29.10
20092;BMP180;10205;49.678;6.560;2023-07-29T12:17:59;99254.00;;;29.10
20092;BMP180;10205;49.678;6.560;2023-07-29T12:20:29;99245.00;;;29.20
20092;BMP180;10205;49.678;6.560;2023-07-29T12:22:59;99244.00;;;29.30
20092;BMP180;10205;49.678;6.560;2023-07-29T12:25:28;99247.00;;;29.40
20092;BMP180;10205;49.678;6.560;2023-07-29T12:27:55;99243.00;;;29.50
20092;BMP180;10205;49.678;6.560;2023-07-29T12:30:24;99249.00;;;29.50
20092;BMP180;10205;49.678;6.560;2023-07-29T12:32:52;99252.00;;;29.60
20092;BMP180;10205;49.678;6.560;2023-07-29T12:35:19;99240.00;;;29.70
20092;BMP180;10205;49.678;6.560;2023-07-29T12:37:46;99252.00;;;29.70
20092;BMP180;10205;49.678;6.560;2023-07-29T12:40:23;99245.00;;;29.80
20092;BMP180;10205;49.678;6.560;2023-07-29T12:42:52;99243.00;;;29.80
20092;BMP180;10205;49.678;6.560;2023-07-29T12:45:20;99236.00;;;29.90
20092;BMP180;10205;49.678;6.560;2023-07-29T12:47:53;99242.00;;;30.00
20092;BMP180;10205;49.678;6.560;2023-07-29T12:50:21;99247.00;;;30.10
20092;BMP180;10205;49.678;6.560;2023-07-29T12:52:48;99241.00;;;30.20
20092;BMP180;10205;49.678;6.560;2023-07-29T12:55:15;99245.00;;;30.20
20092;BMP180;10205;49.678;6.560;2023-07-29T12:57:42;99243.00;;;30.30
20092;BMP180;10205;49.678;6.560;2023-07-29T13:00:11;99244.00;;;30.30
20092;BMP180;10205;49.678;6.560;2023-07-29T13:02:39;99252.00;;;30.40
20092;BMP180;10205;49.678;6.560;2023-07-29T13:05:10;99251.00;;;30.40
20092;BMP180;10205;49.678;6.560;2023-07-29T13:07:39;99251.00;;;30.50
20092;BMP180;10205;49.678;6.560;2023-07-29T13:10:07;99248.00;;;30.50
20092;BMP180;10205;49.678;6.560;2023-07-29T13:12:35;99243.00;;;30.60
20092;BMP180;10205;49.678;6.560;2023-07-29T13:15:02;99239.00;;;30.60
20092;BMP180;10205;49.678;6.560;2023-07-29T13:17:30;99237.00;;;30.60
20092;BMP180;10205;49.678;6.560;2023-07-29T13:19:57;99241.00;;;30.70
20092;BMP180;10205;49.678;6.560;2023-07-29T13:22:26;99242.00;;;30.70
20092;BMP180;10205;49.678;6.560;2023-07-29T13:24:53;99245.00;;;30.70
20092;BMP180;10205;49.678;6.560;2023-07-29T13:27:21;99238.00;;;30.70
20092;BMP180;10205;49.678;6.560;2023-07-29T13:29:48;99241.00;;;30.80
20092;BMP180;10205;49.678;6.560;2023-07-29T13:32:15;99240.00;;;30.80
20092;BMP180;10205;49.678;6.560;2023-07-29T13:34:43;99242.00;;;30.90
20092;BMP180;10205;49.678;6.560;2023-07-29T13:37:10;99259.00;;;30.90
20092;BMP180;10205;49.678;6.560;2023-07-29T13:39:38;99246.00;;;31.00
20092;BMP180;10205;49.678;6.560;2023-07-29T13:42:06;99248.00;;;31.00
20092;BMP180;10205;49.678;6.560;2023-07-29T13:44:33;99248.00;;;31.00
20092;BMP180;10205;49.678;6.560;2023-07-29T13:47:01;99256.00;;;31.10
20092;BMP180;10205;49.678;6.560;2023-07-29T13:49:28;99250.00;;;31.10
20092;BMP180;10205;49.678;6.560;2023-07-29T13:51:55;99247.00;;;31.10
20092;BMP180;10205;49.678;6.560;2023-07-29T13:54:22;99259.00;;;31.20
20092;BMP180;10205;49.678;6.560;2023-07-29T13:56:51;99241.00;;;31.20
20092;BMP180;10205;49.678;6.560;2023-07-29T13:59:20;99252.00;;;31.20
20092;BMP180;10205;49.678;6.560;2023-07-29T14:01:47;99246.00;;;31.20
20092;BMP180;10205;49.678;6.560;2023-07-29T14:04:14;99264.00;;;31.30
20092;BMP180;10205;49.678;6.560;2023-07-29T14:06:41;99250.00;;;31.30
20092;BMP180;10205;49.678;6.560;2023-07-29T14:09:09;99249.00;;;31.40
20092;BMP180;10205;49.678;6.560;2023-07-29T14:11:36;99246.00;;;31.40
20092;BMP180;10205;49.678;6.560;2023-07-29T14:14:04;99247.00;;;31.40
20092;BMP180;10205;49.678;6.560;2023-07-29T14:16:31;99246.00;;;31.50
20092;BMP180;10205;49.678;6.560;2023-07-29T14:18:59;99245.00;;;31.50
20092;BMP180;10205;49.678;6.560;2023-07-29T14:21:26;99254.00;;;31.60
20092;BMP180;10205;49.678;6.560;2023-07-29T14:23:53;99249.00;;;31.60